createdAt,value
2023-03-27T00:01:12.839Z,49.52
2023-03-27T00:03:40.164Z,49.25
2023-03-27T00:06:16.696Z,48.83
2023-03-27T00:08:46.304Z,49.14
2023-03-27T00:11:14.451Z,49.56
2023-03-27T00:13:49.138Z,48.92
2023-03-27T00:16:23.345Z,49.47
2023-03-27T00:18:50.320Z,49.55
2023-03-27T00:21:17.157Z,49.31
2023-03-27T00:23:44.003Z,49.33
2023-03-27T00:26:14.282Z,49.49
2023-03-27T00:28:41.988Z,49.44
2023-03-27T00:31:14.480Z,49.64
2023-03-27T00:33:41.741Z,49.79
2023-03-27T00:36:10.155Z,49.53
2023-03-27T00:38:39.395Z,49.77
2023-03-27T00:41:07.175Z,49.86
2023-03-27T00:43:35.831Z,49.75
2023-03-27T00:46:39.209Z,50.02
2023-03-27T00:49:11.152Z,49.74
2023-03-27T00:51:40.319Z,50.23
2023-03-27T00:54:07.884Z,50.21
2023-03-27T00:56:38.347Z,50.04
2023-03-27T00:59:10.813Z,50.40
2023-03-27T01:01:38.881Z,50.51
2023-03-27T01:04:08.488Z,50.48
2023-03-27T01:06:36.899Z,50.41
2023-03-27T01:09:04.834Z,50.67
2023-03-27T01:11:52.310Z,50.72
2023-03-27T01:14:38.352Z,50.80
2023-03-27T01:17:49.272Z,51.22
2023-03-27T01:20:53.912Z,50.97
2023-03-27T01:24:01.150Z,51.33
2023-03-27T01:27:07.448Z,51.44
2023-03-27T01:29:50.736Z,51.33
2023-03-27T01:33:21.537Z,51.66
2023-03-27T01:36:23.746Z,51.81
2023-03-27T01:39:28.743Z,51.87
2023-03-27T01:42:26.109Z,52.54
2023-03-27T01:45:06.777Z,52.08
2023-03-27T01:48:04.375Z,52.23
2023-03-27T01:50:41.651Z,52.20
2023-03-27T01:53:24.680Z,52.18
2023-03-27T01:55:58.744Z,52.34
2023-03-27T01:58:36.068Z,52.84
2023-03-27T02:01:04.216Z,52.81
2023-03-27T02:03:41.581Z,52.40
2023-03-27T02:06:24.803Z,52.60
2023-03-27T02:09:24.614Z,52.63
2023-03-27T02:12:01.861Z,52.28
2023-03-27T02:14:39.392Z,52.74
2023-03-27T02:17:12.844Z,52.49
2023-03-27T02:19:52.964Z,52.79
2023-03-27T02:22:20.163Z,52.83
2023-03-27T02:25:39.663Z,52.82
2023-03-27T02:28:36.944Z,52.96
2023-03-27T02:31:35.097Z,53.08
2023-03-27T02:34:11.835Z,53.38
2023-03-27T02:37:03.779Z,53.27
2023-03-27T02:39:55.893Z,53.30
2023-03-27T02:43:14.718Z,53.46
2023-03-27T02:46:18.039Z,53.26
2023-03-27T02:48:58.042Z,53.11
2023-03-27T02:51:30.710Z,53.11
2023-03-27T02:54:03.388Z,53.18
2023-03-27T02:56:34.021Z,53.02
2023-03-27T02:59:16.126Z,52.94
2023-03-27T03:01:45.428Z,53.10
2023-03-27T03:04:30.946Z,53.19
2023-03-27T03:06:58.800Z,52.95
2023-03-27T03:09:25.632Z,52.96
2023-03-27T03:11:54.294Z,53.10
2023-03-27T03:14:26.647Z,52.90
2023-03-27T03:16:53.694Z,53.14
2023-03-27T03:19:21.635Z,53.50
2023-03-27T03:21:49.297Z,53.27
2023-03-27T03:24:17.883Z,53.44
2023-03-27T03:26:45.293Z,53.11
2023-03-27T03:29:13.016Z,53.54
2023-03-27T03:31:43.613Z,53.59
2023-03-27T03:34:18.853Z,53.77
2023-03-27T03:36:49.565Z,53.93
2023-03-27T03:39:17.446Z,53.60
2023-03-27T03:41:44.205Z,53.76
2023-03-27T03:44:10.998Z,54.05
2023-03-27T03:46:37.938Z,53.98
2023-03-27T03:49:04.931Z,53.84
2023-03-27T03:51:32.968Z,53.70
2023-03-27T03:54:01.192Z,53.96
2023-03-27T03:56:30.369Z,54.24
2023-03-27T03:58:57.412Z,54.36
2023-03-27T04:01:26.039Z,54.07
2023-03-27T04:03:52.921Z,54.14
2023-03-27T04:06:25.332Z,54.12
2023-03-27T04:08:53.361Z,54.15
2023-03-27T04:11:21.021Z,54.34
2023-03-27T04:13:47.827Z,54.48
2023-03-27T04:16:15.178Z,54.51
2023-03-27T04:18:42.493Z,54.48
2023-03-27T04:21:16.123Z,54.75
2023-03-27T04:23:45.200Z,54.72
2023-03-27T04:26:12.689Z,55.07
2023-03-27T04:28:40.194Z,54.99
2023-03-27T04:31:10.211Z,54.76
2023-03-27T04:33:39.728Z,55.15
2023-03-27T04:36:08.552Z,55.25
2023-03-27T04:38:36.982Z,55.06
2023-03-27T04:41:05.030Z,55.26
2023-03-27T04:43:32.023Z,54.99
2023-03-27T04:45:58.835Z,55.04
2023-03-27T04:48:26.510Z,55.14
2023-03-27T04:50:53.310Z,55.70
2023-03-27T04:53:23.379Z,55.59
2023-03-27T04:55:52.941Z,55.63
2023-03-27T04:58:19.730Z,55.20
2023-03-27T05:00:50.425Z,55.80
2023-03-27T05:03:18.947Z,55.54
2023-03-27T05:05:50.118Z,55.54
2023-03-27T05:08:17.668Z,55.49
2023-03-27T05:10:46.396Z,55.73
2023-03-27T05:13:13.425Z,55.88
2023-03-27T05:15:40.341Z,55.86
2023-03-27T05:18:07.639Z,55.99
2023-03-27T05:20:34.880Z,55.98
2023-03-27T05:23:01.726Z,56.30
2023-03-27T05:25:29.819Z,56.12
2023-03-27T05:27:56.691Z,56.47
2023-03-27T05:30:25.014Z,56.27
2023-03-27T05:32:53.088Z,56.17
2023-03-27T05:35:23.206Z,56.35
2023-03-27T05:37:53.031Z,56.58
2023-03-27T05:40:24.388Z,56.26
2023-03-27T05:42:52.410Z,56.34
2023-03-27T05:45:19.672Z,56.40
2023-03-27T05:47:54.473Z,56.64
2023-03-27T05:50:25.372Z,56.42
2023-03-27T05:53:09.890Z,56.86
2023-03-27T05:55:38.668Z,57.16
2023-03-27T05:58:10.023Z,56.69
2023-03-27T06:00:38.600Z,56.60
2023-03-27T06:03:06.775Z,56.75
2023-03-27T06:05:33.847Z,56.97
2023-03-27T06:08:00.764Z,57.09
2023-03-27T06:10:29.991Z,57.26
2023-03-27T06:13:06.648Z,57.13
2023-03-27T06:15:34.589Z,57.53
2023-03-27T06:18:01.562Z,57.74
2023-03-27T06:20:28.595Z,57.59
2023-03-27T06:22:59.515Z,57.60
2023-03-27T06:25:28.220Z,57.26
2023-03-27T06:27:55.007Z,57.21
2023-03-27T06:30:24.720Z,56.83
2023-03-27T06:32:54.819Z,55.76
2023-03-27T06:35:21.884Z,55.53
2023-03-27T06:37:51.284Z,54.99
2023-03-27T06:40:22.825Z,54.55
2023-03-27T06:42:59.461Z,53.83
2023-03-27T06:45:31.315Z,53.52
2023-03-27T06:48:17.064Z,52.70
2023-03-27T06:50:48.414Z,52.46
2023-03-27T06:53:26.582Z,52.20
2023-03-27T06:55:53.882Z,51.60
2023-03-27T06:58:21.616Z,51.11
2023-03-27T07:00:49.635Z,50.92
2023-03-27T07:03:18.956Z,50.27
2023-03-27T07:05:46.178Z,49.92
2023-03-27T07:10:53.714Z,49.17
2023-03-27T07:13:24.065Z,49.30
2023-03-27T07:15:51.535Z,49.37
2023-03-27T07:18:18.384Z,49.31
2023-03-27T07:20:45.363Z,49.55
2023-03-27T07:23:12.108Z,50.10
2023-03-27T07:25:39.297Z,50.36
2023-03-27T07:28:16.566Z,50.40
2023-03-27T07:30:43.578Z,51.09
2023-03-27T07:33:10.665Z,51.36
2023-03-27T07:35:46.426Z,51.75
2023-03-27T07:38:14.282Z,51.75
2023-03-27T07:40:44.103Z,51.78
2023-03-27T07:43:11.018Z,50.68
2023-03-27T07:45:38.005Z,49.93
2023-03-27T07:48:08.533Z,48.96
2023-03-27T07:50:36.219Z,48.21
2023-03-27T07:53:04.820Z,47.41
2023-03-27T07:55:31.619Z,47.01
2023-03-27T07:58:02.390Z,46.76
2023-03-27T08:00:31.289Z,46.63
2023-03-27T08:03:14.010Z,46.67
2023-03-27T08:05:40.930Z,46.51
2023-03-27T08:08:07.735Z,46.73
2023-03-27T08:10:34.548Z,46.48
2023-03-27T08:13:01.358Z,46.43
2023-03-27T08:15:28.172Z,46.38
2023-03-27T08:17:56.754Z,46.48
2023-03-27T08:20:24.257Z,46.52
2023-03-27T08:22:52.697Z,46.59
2023-03-27T08:25:22.123Z,47.35
2023-03-27T08:27:48.988Z,47.87
2023-03-27T08:30:17.000Z,48.09
2023-03-27T08:32:44.386Z,48.28
2023-03-27T08:35:11.987Z,48.80
2023-03-27T08:37:38.759Z,48.80
2023-03-27T08:40:13.093Z,49.01
2023-03-27T08:42:42.215Z,50.93
2023-03-27T08:45:24.521Z,50.11
2023-03-27T08:48:00.651Z,50.19
2023-03-27T08:50:59.890Z,50.40
2023-03-27T08:53:43.989Z,50.35
2023-03-27T08:56:16.011Z,50.41
2023-03-27T08:58:44.612Z,50.44
2023-03-27T09:01:49.445Z,50.19
2023-03-27T09:04:48.512Z,50.25
2023-03-27T09:07:38.120Z,49.94
2023-03-27T09:10:31.306Z,50.12
2023-03-27T09:13:15.826Z,49.69
2023-03-27T09:15:57.370Z,51.42
2023-03-27T09:18:34.883Z,50.65
2023-03-27T09:21:36.447Z,50.45
2023-03-27T09:24:12.037Z,49.98
2023-03-27T09:26:38.798Z,49.35
2023-03-27T09:29:26.705Z,48.64
2023-03-27T09:31:56.382Z,48.26
2023-03-27T09:34:30.532Z,48.50
2023-03-27T09:36:59.816Z,48.33
2023-03-27T09:39:32.630Z,47.91
2023-03-27T09:42:08.043Z,48.41
2023-03-27T09:44:41.220Z,49.11
2023-03-27T09:47:31.201Z,50.15
2023-03-27T09:50:27.041Z,50.97
2023-03-27T09:53:12.720Z,51.09
2023-03-27T09:56:13.480Z,51.79
2023-03-27T09:58:44.175Z,52.03
2023-03-27T10:01:28.231Z,52.03
2023-03-27T10:03:59.619Z,52.54
2023-03-27T10:06:52.480Z,52.75
2023-03-27T10:09:34.217Z,52.71
2023-03-27T10:12:07.377Z,53.42
2023-03-27T10:14:44.978Z,53.64
2023-03-27T10:17:39.227Z,54.02
2023-03-27T10:20:18.650Z,54.68
2023-03-27T10:23:08.683Z,55.64
2023-03-27T10:25:49.618Z,55.91
2023-03-27T10:28:36.409Z,56.18
2023-03-27T10:31:24.403Z,55.85
2023-03-27T10:33:51.430Z,55.84
2023-03-27T10:36:18.692Z,56.16
2023-03-27T10:39:05.143Z,56.28
2023-03-27T10:41:35.638Z,56.78
2023-03-27T10:44:07.122Z,57.04
2023-03-27T10:46:40.054Z,56.84
2023-03-27T10:49:44.145Z,57.09
2023-03-27T10:52:43.164Z,57.01
2023-03-27T10:55:56.119Z,55.62
2023-03-27T10:58:38.727Z,54.55
2023-03-27T11:01:39.391Z,54.04
2023-03-27T11:04:27.278Z,53.92
2023-03-27T11:06:58.668Z,54.69
2023-03-27T11:09:38.409Z,54.97
2023-03-27T11:12:10.373Z,55.37
2023-03-27T11:14:53.991Z,55.56
2023-03-27T11:17:55.160Z,56.01
2023-03-27T11:20:29.089Z,56.75
2023-03-27T11:23:20.179Z,56.82
2023-03-27T11:25:51.869Z,57.21
2023-03-27T11:28:20.927Z,57.61
2023-03-27T11:31:12.326Z,57.09
2023-03-27T11:33:52.536Z,57.68
2023-03-27T11:36:35.135Z,57.43
2023-03-27T11:39:38.976Z,55.89
2023-03-27T11:42:17.931Z,56.93
2023-03-27T11:44:45.543Z,57.05
2023-03-27T11:47:44.520Z,56.89
2023-03-27T11:50:40.781Z,57.45
2023-03-27T11:53:25.951Z,57.34
2023-03-27T11:56:10.219Z,56.33
2023-03-27T11:59:10.955Z,57.84
2023-03-27T12:02:08.726Z,56.93
2023-03-27T12:04:42.908Z,56.44
2023-03-27T12:10:28.536Z,56.24
2023-03-27T12:13:42.512Z,56.37
2023-03-27T12:16:44.671Z,54.93
2023-03-27T12:19:32.647Z,55.53
2023-03-27T12:22:57.250Z,55.21
2023-03-27T12:26:35.657Z,55.58
2023-03-27T12:29:30.196Z,55.12
2023-03-27T12:32:38.895Z,55.34
2023-03-27T12:35:11.427Z,54.79
2023-03-27T12:37:53.572Z,51.51
2023-03-27T12:40:37.663Z,51.68
2023-03-27T12:43:28.113Z,52.05
2023-03-27T12:46:23.924Z,52.10
2023-03-27T12:49:05.131Z,52.67
2023-03-27T12:52:04.320Z,53.30
2023-03-27T12:54:35.293Z,53.24
2023-03-27T12:57:05.913Z,53.62
2023-03-27T12:59:40.804Z,54.63
2023-03-27T13:02:54.014Z,54.89
2023-03-27T13:05:47.836Z,55.42
2023-03-27T13:08:55.368Z,55.69
2023-03-27T13:12:07.773Z,55.84
2023-03-27T13:15:11.437Z,56.35
2023-03-27T13:17:50.203Z,56.78
2023-03-27T13:21:14.789Z,57.22
2023-03-27T13:24:07.075Z,57.77
2023-03-27T13:26:47.784Z,58.07
2023-03-27T13:29:29.796Z,58.17
2023-03-27T13:32:26.240Z,58.79
2023-03-27T13:35:27.148Z,59.43
2023-03-27T13:37:58.566Z,59.30
2023-03-27T13:40:40.507Z,59.48
2023-03-27T13:43:33.687Z,60.01
2023-03-27T13:46:05.409Z,60.17
2023-03-27T13:49:18.596Z,59.88
2023-03-27T13:52:12.329Z,59.97
2023-03-27T13:55:27.748Z,59.86
2023-03-27T13:58:40.932Z,59.37
2023-03-27T14:01:34.126Z,58.88
2023-03-27T14:04:25.737Z,58.50
2023-03-27T14:07:43.509Z,58.28
2023-03-27T14:10:35.808Z,58.05
2023-03-27T14:13:39.449Z,57.13
2023-03-27T14:16:54.230Z,57.59
2023-03-27T14:19:52.815Z,57.31
2023-03-27T14:22:26.293Z,57.18
2023-03-27T14:25:09.867Z,57.60
2023-03-27T14:27:36.768Z,58.07
2023-03-27T14:30:14.396Z,58.01
2023-03-27T14:32:42.946Z,57.96
2023-03-27T14:35:29.578Z,57.90
2023-03-27T14:38:03.545Z,58.32
2023-03-27T14:40:35.513Z,58.17
2023-03-27T14:43:03.608Z,58.14
2023-03-27T14:45:35.511Z,58.02
2023-03-27T14:48:26.127Z,57.25
2023-03-27T14:50:56.135Z,57.55
2023-03-27T14:53:28.120Z,57.61
2023-03-27T14:55:56.288Z,57.35
2023-03-27T14:58:24.958Z,56.97
2023-03-27T15:00:58.012Z,56.79
2023-03-27T15:03:30.487Z,56.18
2023-03-27T15:06:04.502Z,56.42
2023-03-27T15:08:37.054Z,56.45
2023-03-27T15:11:11.997Z,57.14
2023-03-27T15:13:38.751Z,57.18
2023-03-27T15:16:07.990Z,57.06
2023-03-27T15:18:46.491Z,57.64
2023-03-27T15:21:44.213Z,57.60
2023-03-27T15:24:19.673Z,58.02
2023-03-27T15:26:49.985Z,57.84
2023-03-27T15:29:38.978Z,57.62
2023-03-27T15:32:12.163Z,57.60
2023-03-27T15:34:46.133Z,55.82
2023-03-27T15:37:25.417Z,56.72
2023-03-27T15:40:26.509Z,56.16
2023-03-27T15:43:04.791Z,56.24
2023-03-27T15:45:57.240Z,56.74
2023-03-27T15:48:40.714Z,56.46
2023-03-27T15:51:12.978Z,56.74
2023-03-27T15:53:46.623Z,56.79
2023-03-27T15:56:13.237Z,57.15
2023-03-27T15:58:51.640Z,57.03
2023-03-27T16:01:28.923Z,57.10
2023-03-27T16:04:06.410Z,57.19
2023-03-27T16:06:39.536Z,57.13
2023-03-27T16:09:38.608Z,57.16
2023-03-27T16:12:05.861Z,57.06
2023-03-27T16:14:41.115Z,57.11
2023-03-27T16:17:20.460Z,57.41
2023-03-27T16:20:07.604Z,57.24
2023-03-27T16:22:37.210Z,57.60
2023-03-27T16:25:11.326Z,57.57
2023-03-27T16:27:40.554Z,58.43
2023-03-27T16:30:30.546Z,57.69
2023-03-27T16:32:58.002Z,58.18
2023-03-27T16:35:25.830Z,58.06
2023-03-27T16:37:53.867Z,57.65
2023-03-27T16:40:21.278Z,57.67
2023-03-27T16:42:48.081Z,57.50
2023-03-27T16:45:14.941Z,57.23
2023-03-27T16:47:41.766Z,57.06
2023-03-27T16:50:19.361Z,57.07
2023-03-27T16:52:46.384Z,57.04
2023-03-27T16:55:13.927Z,56.60
2023-03-27T16:57:41.965Z,56.29
2023-03-27T17:00:11.584Z,56.34
2023-03-27T17:02:38.433Z,56.17
2023-03-27T17:05:08.203Z,56.10
2023-03-27T17:07:35.281Z,55.77
2023-03-27T17:10:02.212Z,55.01
2023-03-27T17:12:29.855Z,55.04
2023-03-27T17:14:56.996Z,55.10
2023-03-27T17:17:24.675Z,55.00
2023-03-27T17:19:51.441Z,55.17
2023-03-27T17:22:18.259Z,55.03
2023-03-27T17:24:55.900Z,54.97
2023-03-27T17:27:26.569Z,55.07
2023-03-27T17:29:55.830Z,55.04
2023-03-27T17:32:24.263Z,54.80
2023-03-27T17:34:52.049Z,54.82
2023-03-27T17:37:20.710Z,55.08
2023-03-27T17:39:47.497Z,54.80
2023-03-27T17:42:14.327Z,54.70
2023-03-27T17:44:41.469Z,54.73
2023-03-27T17:47:08.417Z,54.39
2023-03-27T17:49:35.894Z,54.87
2023-03-27T17:52:07.887Z,54.58
2023-03-27T17:54:34.888Z,54.83
2023-03-27T17:57:02.073Z,54.96
2023-03-27T17:59:30.973Z,54.75
2023-03-27T18:01:58.417Z,54.83
2023-03-27T18:04:25.781Z,54.80
2023-03-27T18:06:53.203Z,54.71
2023-03-27T18:09:20.071Z,54.89
2023-03-27T18:11:49.734Z,54.48
2023-03-27T18:14:17.249Z,54.56
2023-03-27T18:16:44.194Z,55.01
2023-03-27T18:19:12.193Z,54.90
2023-03-27T18:21:38.942Z,54.90
2023-03-27T18:24:06.136Z,55.30
2023-03-27T18:26:32.903Z,55.39
2023-03-27T18:29:00.382Z,55.88
2023-03-27T18:31:27.299Z,55.99
2023-03-27T18:33:54.130Z,55.95
2023-03-27T18:36:20.973Z,56.09
2023-03-27T18:38:49.695Z,56.18
2023-03-27T18:41:16.877Z,56.39
2023-03-27T18:43:43.650Z,56.47
2023-03-27T18:46:16.346Z,56.64
2023-03-27T18:48:45.486Z,56.71
2023-03-27T18:51:12.514Z,56.90
2023-03-27T18:53:39.313Z,57.03
2023-03-27T18:56:07.221Z,57.00
2023-03-27T18:58:34.325Z,57.00
2023-03-27T19:01:01.637Z,57.01
2023-03-27T19:03:34.927Z,57.32
2023-03-27T19:06:06.023Z,57.30
2023-03-27T19:08:33.835Z,57.17
2023-03-27T19:11:01.094Z,57.48
2023-03-27T19:13:28.105Z,57.51
2023-03-27T19:15:54.948Z,57.73
2023-03-27T19:18:21.724Z,57.65
2023-03-27T19:20:48.924Z,57.79
2023-03-27T19:23:17.321Z,57.70
2023-03-27T19:25:49.060Z,57.58
2023-03-27T19:28:15.978Z,57.69
2023-03-27T19:30:42.981Z,57.98
2023-03-27T19:33:11.373Z,57.60
2023-03-27T19:35:38.439Z,57.76
2023-03-27T19:38:05.226Z,57.76
2023-03-27T19:40:32.009Z,58.03
2023-03-27T19:42:58.805Z,57.83
2023-03-27T19:45:26.279Z,57.77
2023-03-27T19:47:53.209Z,58.00
2023-03-27T19:50:20.712Z,58.19
2023-03-27T19:52:57.303Z,58.23
2023-03-27T19:55:32.593Z,57.98
2023-03-27T19:57:59.356Z,58.07
2023-03-27T20:00:26.158Z,57.88
2023-03-27T20:02:53.737Z,57.84
2023-03-27T20:05:20.649Z,57.89
2023-03-27T20:07:47.403Z,57.83
2023-03-27T20:10:15.280Z,58.02
2023-03-27T20:12:42.024Z,58.13
2023-03-27T20:15:12.310Z,58.01
2023-03-27T20:17:39.684Z,58.05
2023-03-27T20:20:08.617Z,57.96
2023-03-27T20:22:43.199Z,58.26
2023-03-27T20:25:17.806Z,58.16
2023-03-27T20:27:45.287Z,57.97
2023-03-27T20:30:14.512Z,58.04
2023-03-27T20:32:42.144Z,58.41
2023-03-27T20:35:20.736Z,58.25
2023-03-27T20:37:56.265Z,58.55
2023-03-27T20:40:24.350Z,58.37
2023-03-27T20:43:03.603Z,58.47
2023-03-27T20:45:30.873Z,58.34
2023-03-27T20:48:03.796Z,58.41
2023-03-27T20:50:34.715Z,58.47
2023-03-27T20:53:01.488Z,58.22
2023-03-27T20:55:34.846Z,58.34
2023-03-27T20:58:06.351Z,58.30
2023-03-27T21:00:33.265Z,58.39
2023-03-27T21:03:00.436Z,58.21
2023-03-27T21:05:27.631Z,58.27
2023-03-27T21:07:54.422Z,58.03
2023-03-27T21:10:21.270Z,58.46
2023-03-27T21:12:48.611Z,57.98
2023-03-27T21:15:15.558Z,58.13
2023-03-27T21:17:42.368Z,58.05
2023-03-27T21:20:10.241Z,58.28
2023-03-27T21:22:37.059Z,58.13
2023-03-27T21:25:04.101Z,58.15
2023-03-27T21:27:30.973Z,58.19
2023-03-27T21:29:57.818Z,58.07
2023-03-27T21:32:24.664Z,58.31
2023-03-27T21:34:51.443Z,58.24
2023-03-27T21:37:18.222Z,57.98
2023-03-27T21:39:45.012Z,58.34
2023-03-27T21:42:12.076Z,58.14
2023-03-27T21:44:38.846Z,58.09
2023-03-27T21:47:05.799Z,58.33
2023-03-27T21:49:32.600Z,58.15
2023-03-27T21:51:59.379Z,58.21
2023-03-27T21:54:26.159Z,58.22
2023-03-27T21:56:53.017Z,58.12
2023-03-27T21:59:19.804Z,58.17
2023-03-27T22:01:46.619Z,58.24
2023-03-27T22:04:13.591Z,58.30
2023-03-27T22:06:40.387Z,58.46
2023-03-27T22:09:07.203Z,58.79
2023-03-27T22:11:33.957Z,58.80
2023-03-27T22:14:00.757Z,58.92
2023-03-27T22:16:27.899Z,59.12
2023-03-27T22:18:54.823Z,59.47
2023-03-27T22:21:25.499Z,59.24
2023-03-27T22:23:56.124Z,59.58
2023-03-27T22:26:31.713Z,59.48
2023-03-27T22:28:58.680Z,59.78
2023-03-27T22:31:26.249Z,59.73
2023-03-27T22:33:53.258Z,59.73
2023-03-27T22:36:20.475Z,59.74
2023-03-27T22:38:47.501Z,59.63
2023-03-27T22:41:15.583Z,60.05
2023-03-27T22:43:42.784Z,60.11
2023-03-27T22:46:13.796Z,60.42
2023-03-27T22:48:41.445Z,60.32
2023-03-27T22:51:10.266Z,60.49
2023-03-27T22:53:37.496Z,60.62
2023-03-27T22:56:05.301Z,60.73
2023-03-27T22:58:32.719Z,60.61
2023-03-27T23:00:59.869Z,60.70
2023-03-27T23:03:27.736Z,60.75
2023-03-27T23:05:55.475Z,60.71
2023-03-27T23:08:24.835Z,60.68
2023-03-27T23:11:13.999Z,60.93
2023-03-27T23:13:41.096Z,60.95
2023-03-27T23:16:09.474Z,61.13
2023-03-27T23:18:36.574Z,61.20
2023-03-27T23:21:07.258Z,60.84
2023-03-27T23:23:36.081Z,61.37
2023-03-27T23:26:04.211Z,61.42
2023-03-27T23:28:35.552Z,61.16
2023-03-27T23:31:10.332Z,61.51
2023-03-27T23:33:40.517Z,61.09
2023-03-27T23:36:12.990Z,60.85
2023-03-27T23:38:40.313Z,61.41
2023-03-27T23:41:09.550Z,61.59
2023-03-27T23:43:36.746Z,61.62
2023-03-27T23:46:08.378Z,61.43
2023-03-27T23:48:35.374Z,61.63
2023-03-27T23:51:02.337Z,61.52
2023-03-27T23:53:29.578Z,61.62
2023-03-27T23:55:58.683Z,61.95
2023-03-27T23:58:28.726Z,61.84
